sensor_id;sensor_type;location;lat;lon;timestamp;P1;durP1;ratioP1;P2;durP2;ratioP2
5117;SDS011;2578;51.622;7.046;2023-06-10T00:00:15;9.03;;;8.43;;
5117;SDS011;2578;51.622;7.046;2023-06-10T00:02:41;8.50;;;8.00;;
5117;SDS011;2578;51.622;7.046;2023-06-10T00:05:07;8.20;;;7.70;;
5117;SDS011;2578;51.622;7.046;2023-06-10T00:07:55;8.53;;;8.03;;
5117;SDS011;2578;51.622;7.046;2023-06-10T00:10:24;8.40;;;7.90;;
5117;SDS011;2578;51.622;7.046;2023-06-10T00:12:49;8.30;;;7.80;;
5117;SDS011;2578;51.622;7.046;2023-06-10T00:15:22;7.67;;;7.17;;
5117;SDS011;2578;51.622;7.046;2023-06-10T00:17:50;7.70;;;7.20;;
5117;SDS011;2578;51.622;7.046;2023-06-10T00:20:18;7.50;;;7.00;;
5117;SDS011;2578;51.622;7.046;2023-06-10T00:22:50;7.60;;;7.10;;
5117;SDS011;2578;51.622;7.046;2023-06-10T00:25:18;6.90;;;6.40;;
5117;SDS011;2578;51.622;7.046;2023-06-10T00:27:50;6.60;;;6.20;;
5117;SDS011;2578;51.622;7.046;2023-06-10T00:30:16;6.50;;;6.10;;
5117;SDS011;2578;51.622;7.046;2023-06-10T00:32:46;7.23;;;6.73;;
5117;SDS011;2578;51.622;7.046;2023-06-10T00:35:14;6.57;;;6.17;;
5117;SDS011;2578;51.622;7.046;2023-06-10T00:37:40;6.87;;;6.40;;
5117;SDS011;2578;51.622;7.046;2023-06-10T00:40:06;6.20;;;5.80;;
5117;SDS011;2578;51.622;7.046;2023-06-10T00:42:34;6.37;;;5.97;;
5117;SDS011;2578;51.622;7.046;2023-06-10T00:44:59;6.20;;;5.80;;
5117;SDS011;2578;51.622;7.046;2023-06-10T00:47:28;6.00;;;5.60;;
5117;SDS011;2578;51.622;7.046;2023-06-10T00:49:55;6.00;;;5.60;;
5117;SDS011;2578;51.622;7.046;2023-06-10T00:52:27;5.70;;;5.30;;
5117;SDS011;2578;51.622;7.046;2023-06-10T00:54:54;5.57;;;5.17;;
5117;SDS011;2578;51.622;7.046;2023-06-10T00:57:20;5.40;;;5.00;;
5117;SDS011;2578;51.622;7.046;2023-06-10T00:59:47;5.23;;;4.83;;
5117;SDS011;2578;51.622;7.046;2023-06-10T01:02:14;5.23;;;4.83;;
5117;SDS011;2578;51.622;7.046;2023-06-10T01:04:39;5.10;;;4.70;;
5117;SDS011;2578;51.622;7.046;2023-06-10T01:07:15;5.10;;;4.70;;
5117;SDS011;2578;51.622;7.046;2023-06-10T01:15:02;4.83;;;4.43;;
5117;SDS011;2578;51.622;7.046;2023-06-10T01:17:31;4.70;;;4.30;;
5117;SDS011;2578;51.622;7.046;2023-06-10T01:19:57;4.70;;;4.30;;
5117;SDS011;2578;51.622;7.046;2023-06-10T01:22:39;4.80;;;4.40;;
5117;SDS011;2578;51.622;7.046;2023-06-10T01:25:05;5.10;;;4.70;;
5117;SDS011;2578;51.622;7.046;2023-06-10T01:27:34;5.60;;;5.20;;
5117;SDS011;2578;51.622;7.046;2023-06-10T01:30:07;5.50;;;5.10;;
5117;SDS011;2578;51.622;7.046;2023-06-10T01:32:42;5.70;;;5.30;;
5117;SDS011;2578;51.622;7.046;2023-06-10T01:35:13;5.60;;;5.20;;
5117;SDS011;2578;51.622;7.046;2023-06-10T01:37:40;5.30;;;4.90;;
5117;SDS011;2578;51.622;7.046;2023-06-10T01:40:10;5.50;;;5.10;;
5117;SDS011;2578;51.622;7.046;2023-06-10T01:42:45;5.33;;;4.93;;
5117;SDS011;2578;51.622;7.046;2023-06-10T01:45:11;5.40;;;5.00;;
5117;SDS011;2578;51.622;7.046;2023-06-10T01:47:37;5.67;;;5.27;;
5117;SDS011;2578;51.622;7.046;2023-06-10T01:50:06;10.33;;;7.97;;
5117;SDS011;2578;51.622;7.046;2023-06-10T01:52:31;5.50;;;5.10;;
5117;SDS011;2578;51.622;7.046;2023-06-10T01:55:00;6.40;;;5.93;;
5117;SDS011;2578;51.622;7.046;2023-06-10T01:57:27;5.57;;;5.17;;
5117;SDS011;2578;51.622;7.046;2023-06-10T01:59:55;6.30;;;5.80;;
5117;SDS011;2578;51.622;7.046;2023-06-10T02:02:21;5.60;;;5.20;;
5117;SDS011;2578;51.622;7.046;2023-06-10T02:04:47;6.00;;;5.50;;
5117;SDS011;2578;51.622;7.046;2023-06-10T02:07:13;5.70;;;5.30;;
5117;SDS011;2578;51.622;7.046;2023-06-10T02:09:41;5.87;;;5.47;;
5117;SDS011;2578;51.622;7.046;2023-06-10T02:12:07;5.50;;;5.10;;
5117;SDS011;2578;51.622;7.046;2023-06-10T02:14:36;5.37;;;4.97;;
5117;SDS011;2578;51.622;7.046;2023-06-10T02:17:06;5.10;;;4.70;;
5117;SDS011;2578;51.622;7.046;2023-06-10T02:19:32;5.10;;;4.70;;
5117;SDS011;2578;51.622;7.046;2023-06-10T02:22:01;5.10;;;4.70;;
5117;SDS011;2578;51.622;7.046;2023-06-10T02:24:33;5.30;;;4.90;;
5117;SDS011;2578;51.622;7.046;2023-06-10T02:26:58;5.60;;;5.20;;
5117;SDS011;2578;51.622;7.046;2023-06-10T02:29:28;5.10;;;4.70;;
5117;SDS011;2578;51.622;7.046;2023-06-10T02:31:57;5.10;;;4.70;;
5117;SDS011;2578;51.622;7.046;2023-06-10T02:34:44;5.03;;;4.63;;
5117;SDS011;2578;51.622;7.046;2023-06-10T02:37:09;4.90;;;4.50;;
5117;SDS011;2578;51.622;7.046;2023-06-10T02:39:35;5.17;;;4.77;;
5117;SDS011;2578;51.622;7.046;2023-06-10T02:42:03;4.70;;;4.30;;
5117;SDS011;2578;51.622;7.046;2023-06-10T02:44:30;4.80;;;4.40;;
5117;SDS011;2578;51.622;7.046;2023-06-10T02:46:56;5.40;;;4.90;;
5117;SDS011;2578;51.622;7.046;2023-06-10T02:49:21;5.00;;;4.60;;
5117;SDS011;2578;51.622;7.046;2023-06-10T02:51:47;5.13;;;4.73;;
5117;SDS011;2578;51.622;7.046;2023-06-10T02:54:13;5.20;;;4.80;;
5117;SDS011;2578;51.622;7.046;2023-06-10T02:56:44;5.30;;;4.90;;
5117;SDS011;2578;51.622;7.046;2023-06-10T02:59:21;5.50;;;5.10;;
5117;SDS011;2578;51.622;7.046;2023-06-10T03:01:46;5.77;;;5.27;;
5117;SDS011;2578;51.622;7.046;2023-06-10T03:04:15;9.30;;;7.43;;
5117;SDS011;2578;51.622;7.046;2023-06-10T03:06:41;5.20;;;4.80;;
5117;SDS011;2578;51.622;7.046;2023-06-10T03:09:07;5.17;;;4.77;;
5117;SDS011;2578;51.622;7.046;2023-06-10T03:11:33;5.40;;;5.00;;
5117;SDS011;2578;51.622;7.046;2023-06-10T03:14:04;5.37;;;4.97;;
5117;SDS011;2578;51.622;7.046;2023-06-10T03:16:31;4.80;;;4.40;;
5117;SDS011;2578;51.622;7.046;2023-06-10T03:18:59;4.90;;;4.50;;
5117;SDS011;2578;51.622;7.046;2023-06-10T03:21:25;4.80;;;4.40;;
5117;SDS011;2578;51.622;7.046;2023-06-10T03:23:52;4.70;;;4.30;;
5117;SDS011;2578;51.622;7.046;2023-06-10T03:26:20;4.90;;;4.50;;
5117;SDS011;2578;51.622;7.046;2023-06-10T03:28:49;6.47;;;5.83;;
5117;SDS011;2578;51.622;7.046;2023-06-10T03:31:17;4.60;;;4.20;;
5117;SDS011;2578;51.622;7.046;2023-06-10T03:33:46;4.70;;;4.30;;
5117;SDS011;2578;51.622;7.046;2023-06-10T03:36:15;5.47;;;5.07;;
5117;SDS011;2578;51.622;7.046;2023-06-10T03:38:40;4.90;;;4.50;;
5117;SDS011;2578;51.622;7.046;2023-06-10T03:41:06;4.80;;;4.40;;
5117;SDS011;2578;51.622;7.046;2023-06-10T03:43:31;4.93;;;4.53;;
5117;SDS011;2578;51.622;7.046;2023-06-10T03:45:57;6.17;;;5.33;;
5117;SDS011;2578;51.622;7.046;2023-06-10T03:48:23;5.20;;;4.80;;
5117;SDS011;2578;51.622;7.046;2023-06-10T03:50:49;5.20;;;4.80;;
5117;SDS011;2578;51.622;7.046;2023-06-10T03:53:18;5.40;;;5.00;;
5117;SDS011;2578;51.622;7.046;2023-06-10T03:55:44;5.57;;;5.17;;
5117;SDS011;2578;51.622;7.046;2023-06-10T03:58:10;5.30;;;4.90;;
5117;SDS011;2578;51.622;7.046;2023-06-10T04:00:39;5.40;;;5.00;;
5117;SDS011;2578;51.622;7.046;2023-06-10T04:03:08;5.23;;;4.83;;
5117;SDS011;2578;51.622;7.046;2023-06-10T04:05:34;5.80;;;5.30;;
5117;SDS011;2578;51.622;7.046;2023-06-10T04:08:00;5.40;;;5.00;;
5117;SDS011;2578;51.622;7.046;2023-06-10T04:10:29;5.63;;;5.20;;
5117;SDS011;2578;51.622;7.046;2023-06-10T04:12:55;5.70;;;5.30;;
5117;SDS011;2578;51.622;7.046;2023-06-10T04:15:23;5.70;;;5.30;;
5117;SDS011;2578;51.622;7.046;2023-06-10T04:17:49;5.90;;;5.50;;
5117;SDS011;2578;51.622;7.046;2023-06-10T04:20:18;6.10;;;5.70;;
5117;SDS011;2578;51.622;7.046;2023-06-10T04:22:44;5.90;;;5.50;;
5117;SDS011;2578;51.622;7.046;2023-06-10T04:25:12;6.10;;;5.70;;
5117;SDS011;2578;51.622;7.046;2023-06-10T04:27:41;6.43;;;6.00;;
5117;SDS011;2578;51.622;7.046;2023-06-10T04:30:15;6.67;;;6.23;;
5117;SDS011;2578;51.622;7.046;2023-06-10T04:32:41;6.80;;;6.30;;
5117;SDS011;2578;51.622;7.046;2023-06-10T04:35:07;7.53;;;7.03;;
5117;SDS011;2578;51.622;7.046;2023-06-10T04:37:33;7.70;;;7.20;;
5117;SDS011;2578;51.622;7.046;2023-06-10T04:39:59;7.23;;;6.70;;
5117;SDS011;2578;51.622;7.046;2023-06-10T04:42:25;5.93;;;5.53;;
5117;SDS011;2578;51.622;7.046;2023-06-10T04:44:56;6.50;;;6.10;;
5117;SDS011;2578;51.622;7.046;2023-06-10T04:47:22;7.00;;;6.50;;
5117;SDS011;2578;51.622;7.046;2023-06-10T04:49:48;7.00;;;6.50;;
5117;SDS011;2578;51.622;7.046;2023-06-10T04:52:23;7.90;;;5.97;;
5117;SDS011;2578;51.622;7.046;2023-06-10T04:54:49;6.40;;;6.00;;
5117;SDS011;2578;51.622;7.046;2023-06-10T04:57:15;7.63;;;7.13;;
5117;SDS011;2578;51.622;7.046;2023-06-10T04:59:41;9.73;;;9.13;;
5117;SDS011;2578;51.622;7.046;2023-06-10T05:02:16;10.10;;;9.50;;
5117;SDS011;2578;51.622;7.046;2023-06-10T05:04:47;12.40;;;11.40;;
5117;SDS011;2578;51.622;7.046;2023-06-10T05:07:23;12.63;;;11.90;;
5117;SDS011;2578;51.622;7.046;2023-06-10T05:09:48;14.10;;;13.20;;
5117;SDS011;2578;51.622;7.046;2023-06-10T05:12:14;13.87;;;13.03;;
5117;SDS011;2578;51.622;7.046;2023-06-10T05:14:40;16.10;;;15.10;;
5117;SDS011;2578;51.622;7.046;2023-06-10T05:17:06;15.67;;;14.70;;
5117;SDS011;2578;51.622;7.046;2023-06-10T05:19:35;15.83;;;14.83;;
5117;SDS011;2578;51.622;7.046;2023-06-10T05:22:09;16.30;;;15.30;;
5117;SDS011;2578;51.622;7.046;2023-06-10T05:24:35;17.60;;;16.40;;
5117;SDS011;2578;51.622;7.046;2023-06-10T05:27:04;16.80;;;15.70;;
5117;SDS011;2578;51.622;7.046;2023-06-10T05:29:31;17.13;;;16.03;;
5117;SDS011;2578;51.622;7.046;2023-06-10T05:31:58;18.00;;;16.80;;
5117;SDS011;2578;51.622;7.046;2023-06-10T05:34:28;17.80;;;16.60;;
5117;SDS011;2578;51.622;7.046;2023-06-10T05:36:56;19.13;;;17.83;;
5117;SDS011;2578;51.622;7.046;2023-06-10T05:39:25;18.03;;;16.77;;
5117;SDS011;2578;51.622;7.046;2023-06-10T05:41:56;18.50;;;17.30;;
5117;SDS011;2578;51.622;7.046;2023-06-10T05:44:26;18.40;;;17.20;;
5117;SDS011;2578;51.622;7.046;2023-06-10T05:46:51;17.70;;;16.50;;
5117;SDS011;2578;51.622;7.046;2023-06-10T05:49:17;18.23;;;16.93;;
5117;SDS011;2578;51.622;7.046;2023-06-10T05:51:43;18.40;;;17.10;;
5117;SDS011;2578;51.622;7.046;2023-06-10T05:54:08;18.50;;;17.30;;
5117;SDS011;2578;51.622;7.046;2023-06-10T05:56:37;19.43;;;17.83;;
5117;SDS011;2578;51.622;7.046;2023-06-10T05:59:02;19.00;;;17.40;;
5117;SDS011;2578;51.622;7.046;2023-06-10T06:01:28;18.30;;;17.10;;
5117;SDS011;2578;51.622;7.046;2023-06-10T06:03:54;19.10;;;17.80;;
5117;SDS011;2578;51.622;7.046;2023-06-10T06:06:20;18.90;;;17.70;;
5117;SDS011;2578;51.622;7.046;2023-06-10T06:08:45;19.37;;;17.83;;
5117;SDS011;2578;51.622;7.046;2023-06-10T06:11:11;18.50;;;17.30;;
5117;SDS011;2578;51.622;7.046;2023-06-10T06:13:38;20.73;;;19.13;;
5117;SDS011;2578;51.622;7.046;2023-06-10T06:16:04;19.13;;;17.63;;
5117;SDS011;2578;51.622;7.046;2023-06-10T06:18:32;80.57;;;19.10;;
5117;SDS011;2578;51.622;7.046;2023-06-10T06:20:58;18.63;;;17.37;;
5117;SDS011;2578;51.622;7.046;2023-06-10T06:23:26;19.10;;;17.70;;
5117;SDS011;2578;51.622;7.046;2023-06-10T06:25:52;33.23;;;18.60;;
5117;SDS011;2578;51.622;7.046;2023-06-10T06:28:17;20.23;;;18.53;;
5117;SDS011;2578;51.622;7.046;2023-06-10T06:30:47;18.77;;;17.57;;
5117;SDS011;2578;51.622;7.046;2023-06-10T06:33:15;19.03;;;17.73;;
5117;SDS011;2578;51.622;7.046;2023-06-10T06:35:41;20.10;;;18.70;;
5117;SDS011;2578;51.622;7.046;2023-06-10T06:38:06;20.20;;;18.80;;
5117;SDS011;2578;51.622;7.046;2023-06-10T06:40:32;20.27;;;18.87;;
5117;SDS011;2578;51.622;7.046;2023-06-10T06:43:01;19.20;;;17.90;;
5117;SDS011;2578;51.622;7.046;2023-06-10T06:45:29;19.83;;;18.23;;
5117;SDS011;2578;51.622;7.046;2023-06-10T06:47:58;19.60;;;18.30;;
5117;SDS011;2578;51.622;7.046;2023-06-10T06:50:27;20.10;;;18.80;;
5117;SDS011;2578;51.622;7.046;2023-06-10T06:58:03;19.77;;;18.40;;
5117;SDS011;2578;51.622;7.046;2023-06-10T07:00:30;21.67;;;20.07;;
5117;SDS011;2578;51.622;7.046;2023-06-10T07:02:55;23.10;;;21.30;;
5117;SDS011;2578;51.622;7.046;2023-06-10T07:05:22;20.30;;;18.90;;
5117;SDS011;2578;51.622;7.046;2023-06-10T07:07:48;21.10;;;19.60;;
5117;SDS011;2578;51.622;7.046;2023-06-10T08:01:15;22.47;;;20.87;;
5117;SDS011;2578;51.622;7.046;2023-06-10T08:03:41;22.97;;;21.27;;
5117;SDS011;2578;51.622;7.046;2023-06-10T08:06:07;25.30;;;23.50;;
5117;SDS011;2578;51.622;7.046;2023-06-10T08:08:33;24.07;;;22.33;;
5117;SDS011;2578;51.622;7.046;2023-06-10T08:10:59;22.43;;;20.83;;
5117;SDS011;2578;51.622;7.046;2023-06-10T08:13:25;24.07;;;22.00;;
5117;SDS011;2578;51.622;7.046;2023-06-10T08:16:00;23.00;;;21.40;;
5117;SDS011;2578;51.622;7.046;2023-06-10T08:18:30;24.67;;;22.87;;
5117;SDS011;2578;51.622;7.046;2023-06-10T08:20:55;23.80;;;22.10;;
5117;SDS011;2578;51.622;7.046;2023-06-10T08:23:21;23.60;;;21.90;;
5117;SDS011;2578;51.622;7.046;2023-06-10T08:25:47;24.20;;;22.40;;
5117;SDS011;2578;51.622;7.046;2023-06-10T08:28:12;22.97;;;21.37;;
5117;SDS011;2578;51.622;7.046;2023-06-10T08:30:38;23.47;;;21.77;;
5117;SDS011;2578;51.622;7.046;2023-06-10T08:33:03;23.57;;;21.73;;
5117;SDS011;2578;51.622;7.046;2023-06-10T08:35:32;23.27;;;21.57;;
5117;SDS011;2578;51.622;7.046;2023-06-10T08:38:01;23.00;;;21.30;;
5117;SDS011;2578;51.622;7.046;2023-06-10T08:40:27;23.30;;;21.60;;
5117;SDS011;2578;51.622;7.046;2023-06-10T08:42:54;24.90;;;23.10;;
5117;SDS011;2578;51.622;7.046;2023-06-10T08:45:34;25.43;;;23.53;;
5117;SDS011;2578;51.622;7.046;2023-06-10T08:48:09;26.70;;;24.70;;
5117;SDS011;2578;51.622;7.046;2023-06-10T08:50:37;25.07;;;23.27;;
5117;SDS011;2578;51.622;7.046;2023-06-10T08:53:05;25.20;;;23.40;;
5117;SDS011;2578;51.622;7.046;2023-06-10T08:55:38;25.33;;;23.53;;
5117;SDS011;2578;51.622;7.046;2023-06-10T08:58:09;27.60;;;25.30;;
5117;SDS011;2578;51.622;7.046;2023-06-10T09:00:35;24.57;;;22.57;;
5117;SDS011;2578;51.622;7.046;2023-06-10T09:03:06;24.10;;;22.30;;
5117;SDS011;2578;51.622;7.046;2023-06-10T09:05:33;24.57;;;22.67;;
5117;SDS011;2578;51.622;7.046;2023-06-10T09:08:01;24.93;;;23.13;;
5117;SDS011;2578;51.622;7.046;2023-06-10T09:10:28;24.10;;;22.40;;
5117;SDS011;2578;51.622;7.046;2023-06-10T09:12:55;23.40;;;21.70;;
5117;SDS011;2578;51.622;7.046;2023-06-10T09:15:20;23.30;;;21.60;;
5117;SDS011;2578;51.622;7.046;2023-06-10T09:17:46;23.90;;;22.20;;
5117;SDS011;2578;51.622;7.046;2023-06-10T09:20:15;24.70;;;22.90;;
5117;SDS011;2578;51.622;7.046;2023-06-10T09:22:42;24.40;;;22.60;;
5117;SDS011;2578;51.622;7.046;2023-06-10T09:25:12;25.57;;;23.77;;
5117;SDS011;2578;51.622;7.046;2023-06-10T09:30:25;24.73;;;22.93;;
5117;SDS011;2578;51.622;7.046;2023-06-10T09:33:09;25.40;;;23.60;;
5117;SDS011;2578;51.622;7.046;2023-06-10T09:35:49;25.17;;;23.27;;
5117;SDS011;2578;51.622;7.046;2023-06-10T09:38:20;26.30;;;24.30;;
5117;SDS011;2578;51.622;7.046;2023-06-10T09:40:54;25.30;;;23.40;;
5117;SDS011;2578;51.622;7.046;2023-06-10T09:43:20;26.10;;;24.10;;
5117;SDS011;2578;51.622;7.046;2023-06-10T09:45:49;25.00;;;23.00;;
5117;SDS011;2578;51.622;7.046;2023-06-10T09:48:23;24.40;;;22.60;;
5117;SDS011;2578;51.622;7.046;2023-06-10T09:50:54;32.27;;;30.17;;
5117;SDS011;2578;51.622;7.046;2023-06-10T09:53:23;30.30;;;28.20;;
5117;SDS011;2578;51.622;7.046;2023-06-10T09:55:54;24.97;;;23.17;;
5117;SDS011;2578;51.622;7.046;2023-06-10T09:58:49;25.33;;;23.50;;
5117;SDS011;2578;51.622;7.046;2023-06-10T10:01:21;25.80;;;23.90;;
5117;SDS011;2578;51.622;7.046;2023-06-10T10:03:52;25.77;;;23.87;;
5117;SDS011;2578;51.622;7.046;2023-06-10T10:06:21;25.37;;;23.57;;
5117;SDS011;2578;51.622;7.046;2023-06-10T10:08:50;26.33;;;24.13;;
5117;SDS011;2578;51.622;7.046;2023-06-10T10:11:17;24.90;;;23.10;;
5117;SDS011;2578;51.622;7.046;2023-06-10T10:13:48;25.33;;;23.50;;
5117;SDS011;2578;51.622;7.046;2023-06-10T10:16:21;26.10;;;24.20;;
5117;SDS011;2578;51.622;7.046;2023-06-10T10:22:15;25.27;;;23.47;;
5117;SDS011;2578;51.622;7.046;2023-06-10T10:24:51;25.40;;;23.60;;
5117;SDS011;2578;51.622;7.046;2023-06-10T10:27:28;26.53;;;24.63;;
5117;SDS011;2578;51.622;7.046;2023-06-10T10:30:03;26.40;;;24.50;;
5117;SDS011;2578;51.622;7.046;2023-06-10T10:35:27;26.20;;;24.30;;
5117;SDS011;2578;51.622;7.046;2023-06-10T10:37:54;26.60;;;24.50;;
5117;SDS011;2578;51.622;7.046;2023-06-10T10:40:20;26.60;;;24.70;;
5117;SDS011;2578;51.622;7.046;2023-06-10T10:42:47;26.30;;;24.40;;
5117;SDS011;2578;51.622;7.046;2023-06-10T10:45:18;26.87;;;24.67;;
5117;SDS011;2578;51.622;7.046;2023-06-10T10:47:54;28.40;;;26.30;;
5117;SDS011;2578;51.622;7.046;2023-06-10T10:50:28;26.07;;;24.23;;
5117;SDS011;2578;51.622;7.046;2023-06-10T10:53:15;26.60;;;24.60;;
5117;SDS011;2578;51.622;7.046;2023-06-10T10:56:06;26.70;;;24.60;;
5117;SDS011;2578;51.622;7.046;2023-06-10T10:58:31;25.63;;;23.73;;
5117;SDS011;2578;51.622;7.046;2023-06-10T11:00:57;25.87;;;23.97;;
5117;SDS011;2578;51.622;7.046;2023-06-10T11:03:27;26.70;;;24.70;;
5117;SDS011;2578;51.622;7.046;2023-06-10T11:05:57;26.20;;;24.23;;
5117;SDS011;2578;51.622;7.046;2023-06-10T11:14:08;29.80;;;27.23;;
5117;SDS011;2578;51.622;7.046;2023-06-10T11:16:42;34.80;;;32.50;;
5117;SDS011;2578;51.622;7.046;2023-06-10T11:19:32;33.95;;;31.70;;
5117;SDS011;2578;51.622;7.046;2023-06-10T11:22:08;34.42;;;32.13;;
5117;SDS011;2578;51.622;7.046;2023-06-10T11:24:34;34.42;;;32.17;;
5117;SDS011;2578;51.622;7.046;2023-06-10T11:27:22;34.42;;;32.15;;
5117;SDS011;2578;51.622;7.046;2023-06-10T11:30:17;34.22;;;31.92;;
5117;SDS011;2578;51.622;7.046;2023-06-10T11:32:53;33.53;;;31.33;;
5117;SDS011;2578;51.622;7.046;2023-06-10T11:35:21;33.95;;;31.65;;
5117;SDS011;2578;51.622;7.046;2023-06-10T11:37:51;32.72;;;30.52;;
5117;SDS011;2578;51.622;7.046;2023-06-10T11:40:22;32.25;;;30.05;;
5117;SDS011;2578;51.622;7.046;2023-06-10T11:42:51;31.63;;;29.52;;
5117;SDS011;2578;51.622;7.046;2023-06-10T11:45:22;32.35;;;30.25;;
5117;SDS011;2578;51.622;7.046;2023-06-10T11:47:57;31.95;;;29.65;;
5117;SDS011;2578;51.622;7.046;2023-06-10T11:50:30;31.95;;;29.75;;
5117;SDS011;2578;51.622;7.046;2023-06-10T11:52:56;32.38;;;30.17;;
5117;SDS011;2578;51.622;7.046;2023-06-10T11:55:26;30.48;;;28.48;;
5117;SDS011;2578;51.622;7.046;2023-06-10T11:58:14;31.40;;;29.35;;
5117;SDS011;2578;51.622;7.046;2023-06-10T12:00:53;30.02;;;28.02;;
5117;SDS011;2578;51.622;7.046;2023-06-10T12:03:23;31.45;;;29.27;;
5117;SDS011;2578;51.622;7.046;2023-06-10T12:06:06;31.80;;;29.60;;
5117;SDS011;2578;51.622;7.046;2023-06-10T12:08:32;31.48;;;29.38;;
5117;SDS011;2578;51.622;7.046;2023-06-10T12:11:06;33.72;;;30.52;;
5117;SDS011;2578;51.622;7.046;2023-06-10T12:13:35;33.17;;;30.88;;
5117;SDS011;2578;51.622;7.046;2023-06-10T12:16:11;32.92;;;30.65;;
5117;SDS011;2578;51.622;7.046;2023-06-10T12:18:42;31.63;;;29.52;;
5117;SDS011;2578;51.622;7.046;2023-06-10T12:21:16;32.38;;;30.17;;
5117;SDS011;2578;51.622;7.046;2023-06-10T12:26:44;32.28;;;30.10;;
5117;SDS011;2578;51.622;7.046;2023-06-10T12:29:23;32.33;;;30.13;;
5117;SDS011;2578;51.622;7.046;2023-06-10T12:32:01;32.35;;;30.15;;
5117;SDS011;2578;51.622;7.046;2023-06-10T12:37:06;33.17;;;30.98;;
5117;SDS011;2578;51.622;7.046;2023-06-10T12:39:41;32.80;;;30.50;;
5117;SDS011;2578;51.622;7.046;2023-06-10T12:42:14;31.85;;;29.67;;
5117;SDS011;2578;51.622;7.046;2023-06-10T12:44:39;32.63;;;30.42;;
5117;SDS011;2578;51.622;7.046;2023-06-10T12:47:15;32.45;;;30.05;;
5117;SDS011;2578;51.622;7.046;2023-06-10T12:49:43;33.08;;;30.88;;
5117;SDS011;2578;51.622;7.046;2023-06-10T12:52:12;32.65;;;30.45;;
5117;SDS011;2578;51.622;7.046;2023-06-10T12:54:40;33.40;;;31.10;;
5117;SDS011;2578;51.622;7.046;2023-06-10T12:57:26;34.63;;;31.60;;
5117;SDS011;2578;51.622;7.046;2023-06-10T12:59:52;34.25;;;31.85;;
5117;SDS011;2578;51.622;7.046;2023-06-10T13:02:28;32.70;;;30.50;;
5117;SDS011;2578;51.622;7.046;2023-06-10T13:04:54;32.40;;;30.20;;
5117;SDS011;2578;51.622;7.046;2023-06-10T13:07:20;32.80;;;30.60;;
5117;SDS011;2578;51.622;7.046;2023-06-10T13:09:55;32.63;;;30.42;;
5117;SDS011;2578;51.622;7.046;2023-06-10T13:12:26;32.10;;;29.90;;
5117;SDS011;2578;51.622;7.046;2023-06-10T13:14:58;33.15;;;30.95;;
5117;SDS011;2578;51.622;7.046;2023-06-10T13:17:26;33.03;;;30.83;;
5117;SDS011;2578;51.622;7.046;2023-06-10T13:19:52;32.95;;;30.75;;
5117;SDS011;2578;51.622;7.046;2023-06-10T13:22:21;33.17;;;30.77;;
5117;SDS011;2578;51.622;7.046;2023-06-10T13:24:56;32.92;;;30.73;;
5117;SDS011;2578;51.622;7.046;2023-06-10T13:27:25;31.60;;;29.50;;
5117;SDS011;2578;51.622;7.046;2023-06-10T13:29:50;32.92;;;30.73;;
5117;SDS011;2578;51.622;7.046;2023-06-10T13:32:19;32.10;;;30.00;;
5117;SDS011;2578;51.622;7.046;2023-06-10T13:34:44;33.90;;;31.15;;
5117;SDS011;2578;51.622;7.046;2023-06-10T13:37:13;33.55;;;31.20;;
5117;SDS011;2578;51.622;7.046;2023-06-10T13:39:39;31.95;;;29.75;;
5117;SDS011;2578;51.622;7.046;2023-06-10T13:42:05;31.52;;;29.35;;
5117;SDS011;2578;51.622;7.046;2023-06-10T13:44:37;32.92;;;30.73;;
5117;SDS011;2578;51.622;7.046;2023-06-10T13:47:08;34.38;;;31.88;;
5117;SDS011;2578;51.622;7.046;2023-06-10T13:49:33;33.50;;;30.73;;
5117;SDS011;2578;51.622;7.046;2023-06-10T13:51:59;33.10;;;30.80;;
5117;SDS011;2578;51.622;7.046;2023-06-10T13:54:28;32.75;;;30.45;;
5117;SDS011;2578;51.622;7.046;2023-06-10T13:56:56;33.15;;;30.75;;
5117;SDS011;2578;51.622;7.046;2023-06-10T13:59:28;31.73;;;29.42;;
5117;SDS011;2578;51.622;7.046;2023-06-10T14:01:54;31.10;;;28.90;;
5117;SDS011;2578;51.622;7.046;2023-06-10T14:04:23;31.35;;;29.15;;
5117;SDS011;2578;51.622;7.046;2023-06-10T14:06:49;31.27;;;29.17;;
5117;SDS011;2578;51.622;7.046;2023-06-10T14:09:18;31.42;;;29.23;;
5117;SDS011;2578;51.622;7.046;2023-06-10T14:11:44;29.88;;;27.77;;
5117;SDS011;2578;51.622;7.046;2023-06-10T14:14:09;28.58;;;26.58;;
5117;SDS011;2578;51.622;7.046;2023-06-10T14:16:45;31.10;;;28.48;;
5117;SDS011;2578;51.622;7.046;2023-06-10T14:19:16;29.92;;;27.70;;
5117;SDS011;2578;51.622;7.046;2023-06-10T14:21:45;28.75;;;26.65;;
5117;SDS011;2578;51.622;7.046;2023-06-10T14:24:12;33.25;;;30.95;;
5117;SDS011;2578;51.622;7.046;2023-06-10T14:26:40;33.63;;;31.23;;
5117;SDS011;2578;51.622;7.046;2023-06-10T14:29:08;26.92;;;24.90;;
5117;SDS011;2578;51.622;7.046;2023-06-10T14:31:35;25.23;;;23.33;;
5117;SDS011;2578;51.622;7.046;2023-06-10T14:34:00;27.13;;;25.13;;
5117;SDS011;2578;51.622;7.046;2023-06-10T14:36:30;24.10;;;22.30;;
5117;SDS011;2578;51.622;7.046;2023-06-10T14:38:59;25.77;;;23.88;;
5117;SDS011;2578;51.622;7.046;2023-06-10T14:41:25;24.60;;;22.70;;
5117;SDS011;2578;51.622;7.046;2023-06-10T14:43:51;24.42;;;22.55;;
5117;SDS011;2578;51.622;7.046;2023-06-10T14:46:17;28.25;;;25.83;;
5117;SDS011;2578;51.622;7.046;2023-06-10T14:48:42;25.50;;;23.58;;
5117;SDS011;2578;51.622;7.046;2023-06-10T14:51:08;26.73;;;24.55;;
5117;SDS011;2578;51.622;7.046;2023-06-10T14:53:34;23.65;;;21.85;;
5117;SDS011;2578;51.622;7.046;2023-06-10T14:55:59;23.90;;;22.10;;
5117;SDS011;2578;51.622;7.046;2023-06-10T14:58:25;24.17;;;22.27;;
5117;SDS011;2578;51.622;7.046;2023-06-10T15:00:51;26.45;;;24.42;;
5117;SDS011;2578;51.622;7.046;2023-06-10T15:03:18;27.00;;;24.95;;
5117;SDS011;2578;51.622;7.046;2023-06-10T15:05:43;25.45;;;23.55;;
5117;SDS011;2578;51.622;7.046;2023-06-10T15:08:12;25.95;;;24.05;;
5117;SDS011;2578;51.622;7.046;2023-06-10T15:10:38;27.23;;;25.05;;
5117;SDS011;2578;51.622;7.046;2023-06-10T15:13:06;26.35;;;24.45;;
5117;SDS011;2578;51.622;7.046;2023-06-10T15:15:32;25.77;;;23.85;;
5117;SDS011;2578;51.622;7.046;2023-06-10T15:17:57;27.25;;;24.95;;
5117;SDS011;2578;51.622;7.046;2023-06-10T15:20:23;25.40;;;23.50;;
5117;SDS011;2578;51.622;7.046;2023-06-10T15:22:49;26.23;;;24.15;;
5117;SDS011;2578;51.622;7.046;2023-06-10T15:25:14;25.10;;;23.20;;
5117;SDS011;2578;51.622;7.046;2023-06-10T15:27:40;25.30;;;23.40;;
5117;SDS011;2578;51.622;7.046;2023-06-10T15:30:06;24.60;;;22.77;;
5117;SDS011;2578;51.622;7.046;2023-06-10T15:32:32;25.00;;;23.02;;
5117;SDS011;2578;51.622;7.046;2023-06-10T15:34:58;25.83;;;23.83;;
5117;SDS011;2578;51.622;7.046;2023-06-10T15:37:23;25.77;;;23.63;;
5117;SDS011;2578;51.622;7.046;2023-06-10T15:39:49;25.38;;;23.48;;
5117;SDS011;2578;51.622;7.046;2023-06-10T15:42:21;24.90;;;23.10;;
5117;SDS011;2578;51.622;7.046;2023-06-10T15:44:50;25.08;;;23.27;;
5117;SDS011;2578;51.622;7.046;2023-06-10T15:47:17;25.70;;;23.90;;
5117;SDS011;2578;51.622;7.046;2023-06-10T15:49:46;26.30;;;24.50;;
5117;SDS011;2578;51.622;7.046;2023-06-10T15:52:12;26.08;;;24.17;;
5117;SDS011;2578;51.622;7.046;2023-06-10T15:54:37;27.33;;;24.77;;
5117;SDS011;2578;51.622;7.046;2023-06-10T15:57:03;26.00;;;24.10;;
5117;SDS011;2578;51.622;7.046;2023-06-10T15:59:30;27.03;;;24.97;;
5117;SDS011;2578;51.622;7.046;2023-06-10T16:01:56;27.13;;;25.13;;
5117;SDS011;2578;51.622;7.046;2023-06-10T16:04:22;27.17;;;25.27;;
5117;SDS011;2578;51.622;7.046;2023-06-10T16:06:50;26.40;;;24.50;;
5117;SDS011;2578;51.622;7.046;2023-06-10T16:09:15;26.63;;;24.73;;
5117;SDS011;2578;51.622;7.046;2023-06-10T16:11:41;26.08;;;24.17;;
5117;SDS011;2578;51.622;7.046;2023-06-10T16:14:07;25.80;;;23.90;;
5117;SDS011;2578;51.622;7.046;2023-06-10T16:16:35;25.43;;;23.63;;
5117;SDS011;2578;51.622;7.046;2023-06-10T16:19:01;26.83;;;24.93;;
5117;SDS011;2578;51.622;7.046;2023-06-10T16:21:26;25.73;;;23.93;;
5117;SDS011;2578;51.622;7.046;2023-06-10T16:23:52;26.40;;;24.50;;
5117;SDS011;2578;51.622;7.046;2023-06-10T16:26:21;27.50;;;25.50;;
5117;SDS011;2578;51.622;7.046;2023-06-10T16:28:47;25.90;;;24.10;;